Virgie Cenac — WDC2765 — position and weather

sailwx.info

Track history (hours):
 
Tides and Currents Weather Stations Pressure Air Temp Water Temp Dewpoint Dewpoint Depression Visibility Wind Speed Wind Dir Waves Ship Positions

Virgie Cenac

Owner: Cenac Marine Transportation, Inc., Houma, LA. More information available from US FCC via Universal Licensing System and Coast Guard Vessel Documentation Center.

Last reported at 2014-Dec-14 06:33 UTC. Time now 2014-Dec-17 23:16 UTC.
Position N 29°34' W 090°43'.

Length 18 m; draft 3 m.

Type: Towing. MMSI: 366997430.

Date/timePositionNaut miles runAvg speedWind from/ knotsBaromVisibWave heightAir tempDewpointWater temp
2014-Dec-14 06:33N 29°34' W 090°43'13 0.4
2014-Dec-13 01:23N 29°34' W 090°57'7 8.0
2014-Dec-13 00:33N 29°37' W 091°04'8 7.2
2014-Dec-12 23:28N 29°34' W 091°12'7 5.7
2014-Dec-12 22:18N 29°28' W 091°16'11 1.3
2014-Dec-12 14:08N 29°21' W 091°07'0 0.0
2014-Dec-12 13:33N 29°21' W 091°07'5 0.8
2014-Dec-12 07:06N 29°23' W 091°12'5 2.3
2014-Dec-12 05:07N 29°27' W 091°15'1 2.0
2014-Dec-12 04:21N 29°28' W 091°16'2 3.2
2014-Dec-12 03:33N 29°31' W 091°16'4 3.0
2014-Dec-12 02:19N 29°33' W 091°13'3 3.9
2014-Dec-12 01:33N 29°36' W 091°11'4 4.1
2014-Dec-12 00:33N 29°37' W 091°07'5 4.6
2014-Dec-11 23:27N 29°37' W 091°01'  
2014-Dec-07 04:24N 29°34' W 090°57'6 7.1
2014-Dec-07 03:32N 29°37' W 091°03'6 6.5
2014-Dec-07 02:33N 29°41' W 091°09'4 4.0
2014-Dec-07 01:33N 29°40' W 091°14'0 0.0
2014-Dec-07 00:33N 29°40' W 091°14'3 3.3
2014-Dec-06 23:33N 29°37' W 091°15'7 6.5
2014-Dec-06 22:33N 29°31' W 091°16'  
Track history (hours):
 
Tides and Currents Weather Stations Pressure Air Temp Water Temp Dewpoint Dewpoint Depression Visibility Wind Speed Wind Dir Waves Ship Positions

Virgie Cenac

Owner: Cenac Marine Transportation, Inc., Houma, LA. More information available from US FCC via Universal Licensing System and Coast Guard Vessel Documentation Center.

Last reported at 2014-Dec-14 06:33 UTC. Time now 2014-Dec-17 23:16 UTC.
Position N 29°34' W 090°43'.

Length 18 m; draft 3 m.

Type: Towing. MMSI: 366997430.

Date/timePositionNaut miles runAvg speedWind from/ knotsBaromVisibWave heightAir tempDewpointWater temp
2014-Dec-14 06:33N 29°34' W 090°43'13 0.4
2014-Dec-13 01:23N 29°34' W 090°57'7 8.0
2014-Dec-13 00:33N 29°37' W 091°04'8 7.2
2014-Dec-12 23:28N 29°34' W 091°12'7 5.7
2014-Dec-12 22:18N 29°28' W 091°16'11 1.3
2014-Dec-12 14:08N 29°21' W 091°07'0 0.0
2014-Dec-12 13:33N 29°21' W 091°07'5 0.8
2014-Dec-12 07:06N 29°23' W 091°12'5 2.3
2014-Dec-12 05:07N 29°27' W 091°15'1 2.0
2014-Dec-12 04:21N 29°28' W 091°16'2 3.2
2014-Dec-12 03:33N 29°31' W 091°16'4 3.0
2014-Dec-12 02:19N 29°33' W 091°13'3 3.9
2014-Dec-12 01:33N 29°36' W 091°11'4 4.1
2014-Dec-12 00:33N 29°37' W 091°07'5 4.6
2014-Dec-11 23:27N 29°37' W 091°01'  
2014-Dec-07 04:24N 29°34' W 090°57'6 7.1
2014-Dec-07 03:32N 29°37' W 091°03'6 6.5
2014-Dec-07 02:33N 29°41' W 091°09'4 4.0
2014-Dec-07 01:33N 29°40' W 091°14'0 0.0
2014-Dec-07 00:33N 29°40' W 091°14'3 3.3
2014-Dec-06 23:33N 29°37' W 091°15'7 6.5
2014-Dec-06 22:33N 29°31' W 091°16'  

Dump ship's entire track history